Tasiilaq

KL  EN  DA
ASIAQ
Weather Now GREENLAND SURVEY
Updated [WGT/WGST] Temperature [°C] Wind [m/s] Air pressure [hPa] Relative humidity [%] Precipitation [mm]
Present Wind chill Speed Max
17.04 23:00-4,50,00,4 ⇑2,1994940,0
17.04 22:00-4,10,00,0 ⇓2,5994940,0
17.04 21:00-4,30,01,3 ⇑4,0994940,0
17.04 20:00-4,3-8,22,6 ⇖3,2993940,0
17.04 19:00-3,2-5,21,4 ⇘4,0993910,0
17.04 18:00-2,50,00,5 ⇑2,9992820,0
17.04 17:00-1,70,00,4 ⇓2,0991760,0
17.04 16:00-1,80,00,0 ⇓2,4991740,0
17.04 15:00-1,80,00,0 ⇓2,1990740,0
17.04 14:00-2,00,00,0 ⇓0,5990760,0
17.04 13:00-0,70,00,0 ⇓0,0990690,0
17.04 12:00-1,70,00,0 ⇓2,2990700,0
17.04 11:00-2,10,00,3 ⇒3,8989720,9
17.04 10:00-2,8-6,02,2 ⇖3,2989740,5
17.04 09:00-2,00,00,0 ⇓2,9988691,1
17.04 08:00-2,20,00,0 ⇓3,3988693,0
17.04 07:00-3,30,01,1 ⇑4,3987761,4
17.04 06:00-2,10,00,0 ⇓3,9986660,2
17.04 05:00-2,50,00,0 ⇓5,8985670,3
17.04 04:00-2,2-5,62,5 ⇙6,7984730,0
17.04 03:00-2,60,00,0 ⇓2,7983910,1
17.04 02:00-2,60,00,0 ⇓1,4982940,2
17.04 01:00-2,00,00,0 ⇓4,8982850,1
17.04 00:00-1,6-6,03,7 ⇘5,8981770,0
16.04 23:00-1,40,00,0 ⇓7,9981760,1
Position: (65.611111111,-37.63666666)

[Back]